sensor_id;sensor_type;location;lat;lon;timestamp;P1;durP1;ratioP1;P2;durP2;ratioP2
1446;SDS011;717;51.522;7.266;2023-05-10T00:00:04;5.72;;;4.88;;
1446;SDS011;717;51.522;7.266;2023-05-10T00:02:34;5.43;;;4.90;;
1446;SDS011;717;51.522;7.266;2023-05-10T00:05:06;5.82;;;5.22;;
1446;SDS011;717;51.522;7.266;2023-05-10T00:07:35;5.57;;;5.07;;
1446;SDS011;717;51.522;7.266;2023-05-10T00:10:04;5.20;;;4.68;;
1446;SDS011;717;51.522;7.266;2023-05-10T00:12:34;5.90;;;5.40;;
1446;SDS011;717;51.522;7.266;2023-05-10T00:15:04;6.13;;;5.53;;
1446;SDS011;717;51.522;7.266;2023-05-10T00:17:33;6.20;;;5.60;;
1446;SDS011;717;51.522;7.266;2023-05-10T00:20:05;6.13;;;5.63;;
1446;SDS011;717;51.522;7.266;2023-05-10T00:22:34;6.40;;;5.80;;
1446;SDS011;717;51.522;7.266;2023-05-10T00:25:04;7.10;;;6.40;;
1446;SDS011;717;51.522;7.266;2023-05-10T00:27:34;7.13;;;6.43;;
1446;SDS011;717;51.522;7.266;2023-05-10T00:30:03;7.00;;;6.30;;
1446;SDS011;717;51.522;7.266;2023-05-10T00:32:32;7.45;;;6.65;;
1446;SDS011;717;51.522;7.266;2023-05-10T00:35:01;7.22;;;6.53;;
1446;SDS011;717;51.522;7.266;2023-05-10T00:37:32;7.07;;;6.38;;
1446;SDS011;717;51.522;7.266;2023-05-10T00:40:00;7.63;;;6.88;;
1446;SDS011;717;51.522;7.266;2023-05-10T00:42:29;7.65;;;6.72;;
1446;SDS011;717;51.522;7.266;2023-05-10T00:44:58;8.27;;;7.43;;
1446;SDS011;717;51.522;7.266;2023-05-10T00:47:27;9.00;;;8.20;;
1446;SDS011;717;51.522;7.266;2023-05-10T00:49:56;9.48;;;8.48;;
1446;SDS011;717;51.522;7.266;2023-05-10T00:52:25;9.70;;;8.80;;
1446;SDS011;717;51.522;7.266;2023-05-10T00:54:57;10.25;;;8.60;;
1446;SDS011;717;51.522;7.266;2023-05-10T00:57:25;9.75;;;8.85;;
1446;SDS011;717;51.522;7.266;2023-05-10T00:59:54;10.40;;;9.40;;
1446;SDS011;717;51.522;7.266;2023-05-10T01:02:23;11.20;;;10.10;;
1446;SDS011;717;51.522;7.266;2023-05-10T01:04:52;11.18;;;10.07;;
1446;SDS011;717;51.522;7.266;2023-05-10T01:07:21;11.23;;;10.13;;
1446;SDS011;717;51.522;7.266;2023-05-10T01:09:49;11.55;;;9.55;;
1446;SDS011;717;51.522;7.266;2023-05-10T01:12:20;11.60;;;10.43;;
1446;SDS011;717;51.522;7.266;2023-05-10T01:14:49;11.32;;;10.23;;
1446;SDS011;717;51.522;7.266;2023-05-10T01:17:18;11.50;;;10.30;;
1446;SDS011;717;51.522;7.266;2023-05-10T01:19:47;11.30;;;10.20;;
1446;SDS011;717;51.522;7.266;2023-05-10T01:22:24;10.70;;;9.60;;
1446;SDS011;717;51.522;7.266;2023-05-10T01:25:20;10.63;;;9.73;;
1446;SDS011;717;51.522;7.266;2023-05-10T01:31:21;10.05;;;9.05;;
1446;SDS011;717;51.522;7.266;2023-05-10T01:33:59;8.80;;;7.90;;
1446;SDS011;717;51.522;7.266;2023-05-10T01:36:30;7.88;;;7.07;;
1446;SDS011;717;51.522;7.266;2023-05-10T01:39:04;7.22;;;5.93;;
1446;SDS011;717;51.522;7.266;2023-05-10T01:41:40;6.38;;;5.78;;
1446;SDS011;717;51.522;7.266;2023-05-10T01:44:16;5.55;;;4.60;;
1446;SDS011;717;51.522;7.266;2023-05-10T01:46:53;6.80;;;4.47;;
1446;SDS011;717;51.522;7.266;2023-05-10T01:49:31;4.38;;;3.97;;
1446;SDS011;717;51.522;7.266;2023-05-10T01:52:06;4.60;;;4.15;;
1446;SDS011;717;51.522;7.266;2023-05-10T01:54:37;5.07;;;4.15;;
1446;SDS011;717;51.522;7.266;2023-05-10T01:57:09;4.80;;;4.30;;
1446;SDS011;717;51.522;7.266;2023-05-10T01:59:41;4.78;;;4.30;;
1446;SDS011;717;51.522;7.266;2023-05-10T02:02:13;5.07;;;4.57;;
1446;SDS011;717;51.522;7.266;2023-05-10T02:04:46;5.25;;;4.68;;
1446;SDS011;717;51.522;7.266;2023-05-10T02:07:17;4.68;;;4.28;;
1446;SDS011;717;51.522;7.266;2023-05-10T02:09:46;5.20;;;4.72;;
1446;SDS011;717;51.522;7.266;2023-05-10T02:12:16;4.78;;;4.35;;
1446;SDS011;717;51.522;7.266;2023-05-10T02:14:46;4.88;;;4.38;;
1446;SDS011;717;51.522;7.266;2023-05-10T02:17:16;6.03;;;5.43;;
1446;SDS011;717;51.522;7.266;2023-05-10T02:19:48;5.72;;;5.13;;
1446;SDS011;717;51.522;7.266;2023-05-10T02:22:19;5.05;;;4.55;;
1446;SDS011;717;51.522;7.266;2023-05-10T02:24:49;5.80;;;5.30;;
1446;SDS011;717;51.522;7.266;2023-05-10T02:27:18;5.45;;;4.95;;
1446;SDS011;717;51.522;7.266;2023-05-10T02:29:48;5.57;;;5.00;;
1446;SDS011;717;51.522;7.266;2023-05-10T02:32:18;6.68;;;5.97;;
1446;SDS011;717;51.522;7.266;2023-05-10T02:34:51;6.13;;;5.57;;
1446;SDS011;717;51.522;7.266;2023-05-10T02:37:21;6.05;;;5.45;;
1446;SDS011;717;51.522;7.266;2023-05-10T02:39:50;6.30;;;5.70;;
1446;SDS011;717;51.522;7.266;2023-05-10T02:42:23;7.35;;;6.50;;
1446;SDS011;717;51.522;7.266;2023-05-10T02:44:54;8.13;;;6.63;;
1446;SDS011;717;51.522;7.266;2023-05-10T02:47:28;6.80;;;6.10;;
1446;SDS011;717;51.522;7.266;2023-05-10T02:49:59;6.75;;;6.03;;
1446;SDS011;717;51.522;7.266;2023-05-10T02:52:29;6.75;;;6.13;;
1446;SDS011;717;51.522;7.266;2023-05-10T02:55:02;6.57;;;5.85;;
1446;SDS011;717;51.522;7.266;2023-05-10T02:57:35;7.07;;;5.88;;
1446;SDS011;717;51.522;7.266;2023-05-10T03:00:10;5.97;;;5.38;;
1446;SDS011;717;51.522;7.266;2023-05-10T03:02:39;6.25;;;5.65;;
1446;SDS011;717;51.522;7.266;2023-05-10T03:05:10;6.97;;;5.40;;
1446;SDS011;717;51.522;7.266;2023-05-10T03:07:39;5.60;;;5.05;;
1446;SDS011;717;51.522;7.266;2023-05-10T03:10:07;6.05;;;5.50;;
1446;SDS011;717;51.522;7.266;2023-05-10T03:12:49;7.50;;;5.78;;
1446;SDS011;717;51.522;7.266;2023-05-10T03:15:31;7.55;;;6.75;;
1446;SDS011;717;51.522;7.266;2023-05-10T03:18:09;7.97;;;7.05;;
1446;SDS011;717;51.522;7.266;2023-05-10T03:20:45;9.68;;;7.85;;
1446;SDS011;717;51.522;7.266;2023-05-10T03:23:20;9.25;;;8.32;;
1446;SDS011;717;51.522;7.266;2023-05-10T03:25:50;11.80;;;9.73;;
1446;SDS011;717;51.522;7.266;2023-05-10T03:28:20;11.27;;;10.07;;
1446;SDS011;717;51.522;7.266;2023-05-10T03:30:49;11.77;;;10.55;;
1446;SDS011;717;51.522;7.266;2023-05-10T03:33:18;12.90;;;11.55;;
1446;SDS011;717;51.522;7.266;2023-05-10T03:35:49;12.70;;;11.40;;
1446;SDS011;717;51.522;7.266;2023-05-10T03:38:18;12.82;;;11.10;;
1446;SDS011;717;51.522;7.266;2023-05-10T03:40:46;11.23;;;9.98;;
1446;SDS011;717;51.522;7.266;2023-05-10T03:43:15;13.68;;;10.32;;
1446;SDS011;717;51.522;7.266;2023-05-10T03:45:43;12.55;;;11.20;;
1446;SDS011;717;51.522;7.266;2023-05-10T03:48:12;13.00;;;11.60;;
1446;SDS011;717;51.522;7.266;2023-05-10T03:50:41;13.07;;;11.68;;
1446;SDS011;717;51.522;7.266;2023-05-10T03:53:12;14.05;;;11.70;;
1446;SDS011;717;51.522;7.266;2023-05-10T03:55:41;13.10;;;11.55;;
1446;SDS011;717;51.522;7.266;2023-05-10T03:58:10;14.02;;;11.13;;
1446;SDS011;717;51.522;7.266;2023-05-10T04:00:39;11.68;;;10.40;;
1446;SDS011;717;51.522;7.266;2023-05-10T04:03:10;13.15;;;11.68;;
1446;SDS011;717;51.522;7.266;2023-05-10T04:05:39;14.45;;;11.38;;
1446;SDS011;717;51.522;7.266;2023-05-10T04:08:07;13.95;;;10.48;;
1446;SDS011;717;51.522;7.266;2023-05-10T04:10:38;14.13;;;10.98;;
1446;SDS011;717;51.522;7.266;2023-05-10T04:13:07;13.52;;;10.73;;
1446;SDS011;717;51.522;7.266;2023-05-10T04:15:36;13.80;;;10.63;;
1446;SDS011;717;51.522;7.266;2023-05-10T04:18:05;15.13;;;11.40;;
1446;SDS011;717;51.522;7.266;2023-05-10T04:20:33;13.02;;;10.23;;
1446;SDS011;717;51.522;7.266;2023-05-10T04:23:02;12.95;;;10.85;;
1446;SDS011;717;51.522;7.266;2023-05-10T04:25:33;15.82;;;12.20;;
1446;SDS011;717;51.522;7.266;2023-05-10T04:28:04;16.98;;;12.80;;
1446;SDS011;717;51.522;7.266;2023-05-10T04:30:33;14.48;;;12.15;;
1446;SDS011;717;51.522;7.266;2023-05-10T04:33:02;17.27;;;12.63;;
1446;SDS011;717;51.522;7.266;2023-05-10T04:35:31;18.05;;;13.38;;
1446;SDS011;717;51.522;7.266;2023-05-10T04:37:59;17.25;;;13.45;;
1446;SDS011;717;51.522;7.266;2023-05-10T04:40:28;16.73;;;14.70;;
1446;SDS011;717;51.522;7.266;2023-05-10T04:42:56;19.58;;;15.52;;
1446;SDS011;717;51.522;7.266;2023-05-10T04:45:28;21.90;;;15.52;;
1446;SDS011;717;51.522;7.266;2023-05-10T04:47:56;21.67;;;17.08;;
1446;SDS011;717;51.522;7.266;2023-05-10T04:50:25;24.33;;;17.85;;
1446;SDS011;717;51.522;7.266;2023-05-10T04:52:53;22.35;;;17.80;;
1446;SDS011;717;51.522;7.266;2023-05-10T04:55:22;26.20;;;19.02;;
1446;SDS011;717;51.522;7.266;2023-05-10T04:57:51;27.10;;;20.10;;
1446;SDS011;717;51.522;7.266;2023-05-10T05:00:21;29.85;;;20.50;;
1446;SDS011;717;51.522;7.266;2023-05-10T05:02:53;29.20;;;19.92;;
1446;SDS011;717;51.522;7.266;2023-05-10T05:05:21;29.52;;;20.48;;
1446;SDS011;717;51.522;7.266;2023-05-10T05:07:50;28.60;;;19.58;;
1446;SDS011;717;51.522;7.266;2023-05-10T05:10:19;28.92;;;21.80;;
1446;SDS011;717;51.522;7.266;2023-05-10T05:12:47;30.23;;;21.27;;
1446;SDS011;717;51.522;7.266;2023-05-10T05:15:16;29.50;;;22.13;;
1446;SDS011;717;51.522;7.266;2023-05-10T05:17:45;30.00;;;20.80;;
1446;SDS011;717;51.522;7.266;2023-05-10T05:20:16;30.75;;;21.27;;
1446;SDS011;717;51.522;7.266;2023-05-10T05:22:45;33.53;;;22.15;;
1446;SDS011;717;51.522;7.266;2023-05-10T05:25:13;34.38;;;22.35;;
1446;SDS011;717;51.522;7.266;2023-05-10T05:27:42;30.65;;;20.95;;
1446;SDS011;717;51.522;7.266;2023-05-10T05:30:11;33.42;;;23.58;;
1446;SDS011;717;51.522;7.266;2023-05-10T05:32:40;33.17;;;22.45;;
1446;SDS011;717;51.522;7.266;2023-05-10T05:35:09;33.30;;;22.67;;
1446;SDS011;717;51.522;7.266;2023-05-10T05:37:40;32.88;;;23.35;;
1446;SDS011;717;51.522;7.266;2023-05-10T05:40:11;33.20;;;23.02;;
1446;SDS011;717;51.522;7.266;2023-05-10T05:42:40;34.78;;;23.67;;
1446;SDS011;717;51.522;7.266;2023-05-10T05:45:09;34.10;;;25.15;;
1446;SDS011;717;51.522;7.266;2023-05-10T05:47:40;33.55;;;24.15;;
1446;SDS011;717;51.522;7.266;2023-05-10T05:50:09;35.88;;;23.08;;
1446;SDS011;717;51.522;7.266;2023-05-10T05:52:40;37.40;;;25.45;;
1446;SDS011;717;51.522;7.266;2023-05-10T05:55:09;34.22;;;23.60;;
1446;SDS011;717;51.522;7.266;2023-05-10T05:57:37;32.83;;;23.13;;
1446;SDS011;717;51.522;7.266;2023-05-10T06:00:07;36.35;;;25.63;;
1446;SDS011;717;51.522;7.266;2023-05-10T06:02:36;35.83;;;25.23;;
1446;SDS011;717;51.522;7.266;2023-05-10T06:05:05;33.58;;;24.65;;
1446;SDS011;717;51.522;7.266;2023-05-10T06:07:34;37.35;;;25.25;;
1446;SDS011;717;51.522;7.266;2023-05-10T06:10:06;37.13;;;25.67;;
1446;SDS011;717;51.522;7.266;2023-05-10T06:12:35;33.70;;;24.75;;
1446;SDS011;717;51.522;7.266;2023-05-10T06:15:04;36.65;;;24.10;;
1446;SDS011;717;51.522;7.266;2023-05-10T06:17:33;32.40;;;23.23;;
1446;SDS011;717;51.522;7.266;2023-05-10T06:20:04;34.55;;;24.50;;
1446;SDS011;717;51.522;7.266;2023-05-10T06:22:33;30.42;;;22.38;;
1446;SDS011;717;51.522;7.266;2023-05-10T06:25:02;34.63;;;25.30;;
1446;SDS011;717;51.522;7.266;2023-05-10T06:27:33;34.20;;;25.60;;
1446;SDS011;717;51.522;7.266;2023-05-10T06:30:02;35.72;;;24.15;;
1446;SDS011;717;51.522;7.266;2023-05-10T06:32:31;34.65;;;24.52;;
1446;SDS011;717;51.522;7.266;2023-05-10T06:35:00;35.97;;;25.90;;
1446;SDS011;717;51.522;7.266;2023-05-10T06:37:28;33.45;;;23.88;;
1446;SDS011;717;51.522;7.266;2023-05-10T06:39:57;38.22;;;26.23;;
1446;SDS011;717;51.522;7.266;2023-05-10T06:42:25;36.40;;;25.08;;
1446;SDS011;717;51.522;7.266;2023-05-10T06:44:57;34.40;;;24.17;;
1446;SDS011;717;51.522;7.266;2023-05-10T06:47:25;33.35;;;24.52;;
1446;SDS011;717;51.522;7.266;2023-05-10T06:49:54;38.28;;;25.58;;
1446;SDS011;717;51.522;7.266;2023-05-10T06:52:23;34.72;;;25.02;;
1446;SDS011;717;51.522;7.266;2023-05-10T06:54:52;32.67;;;24.33;;
1446;SDS011;717;51.522;7.266;2023-05-10T06:57:20;37.97;;;25.75;;
1446;SDS011;717;51.522;7.266;2023-05-10T06:59:49;34.28;;;24.20;;
1446;SDS011;717;51.522;7.266;2023-05-10T07:02:20;34.85;;;25.00;;
1446;SDS011;717;51.522;7.266;2023-05-10T07:04:49;34.38;;;24.23;;
1446;SDS011;717;51.522;7.266;2023-05-10T07:07:18;32.15;;;23.88;;
1446;SDS011;717;51.522;7.266;2023-05-10T07:09:47;32.60;;;23.48;;
1446;SDS011;717;51.522;7.266;2023-05-10T07:12:16;33.65;;;23.13;;
1446;SDS011;717;51.522;7.266;2023-05-10T07:14:45;31.75;;;22.15;;
1446;SDS011;717;51.522;7.266;2023-05-10T07:17:13;32.08;;;22.30;;
1446;SDS011;717;51.522;7.266;2023-05-10T07:19:44;33.22;;;22.80;;
1446;SDS011;717;51.522;7.266;2023-05-10T07:22:13;32.28;;;21.80;;
1446;SDS011;717;51.522;7.266;2023-05-10T07:24:42;29.67;;;21.48;;
1446;SDS011;717;51.522;7.266;2023-05-10T07:27:11;33.55;;;22.25;;
1446;SDS011;717;51.522;7.266;2023-05-10T07:29:40;33.03;;;22.13;;
1446;SDS011;717;51.522;7.266;2023-05-10T07:32:09;31.15;;;22.20;;
1446;SDS011;717;51.522;7.266;2023-05-10T07:34:37;32.70;;;22.20;;
1446;SDS011;717;51.522;7.266;2023-05-10T07:37:09;30.55;;;21.30;;
1446;SDS011;717;51.522;7.266;2023-05-10T07:39:37;34.85;;;22.15;;
1446;SDS011;717;51.522;7.266;2023-05-10T07:42:06;35.70;;;22.33;;
1446;SDS011;717;51.522;7.266;2023-05-10T07:44:34;28.58;;;20.08;;
1446;SDS011;717;51.522;7.266;2023-05-10T07:47:03;29.20;;;20.17;;
1446;SDS011;717;51.522;7.266;2023-05-10T07:49:31;31.05;;;21.17;;
1446;SDS011;717;51.522;7.266;2023-05-10T07:52:00;28.27;;;19.85;;
1446;SDS011;717;51.522;7.266;2023-05-10T07:54:33;26.77;;;19.88;;
1446;SDS011;717;51.522;7.266;2023-05-10T07:57:02;31.17;;;21.45;;
1446;SDS011;717;51.522;7.266;2023-05-10T07:59:31;32.15;;;20.85;;
1446;SDS011;717;51.522;7.266;2023-05-10T08:02:00;33.28;;;24.50;;
1446;SDS011;717;51.522;7.266;2023-05-10T08:04:28;33.17;;;23.90;;
1446;SDS011;717;51.522;7.266;2023-05-10T08:06:57;33.58;;;25.38;;
1446;SDS011;717;51.522;7.266;2023-05-10T08:09:25;31.75;;;25.25;;
1446;SDS011;717;51.522;7.266;2023-05-10T08:11:56;34.83;;;24.75;;
1446;SDS011;717;51.522;7.266;2023-05-10T08:14:25;35.00;;;24.23;;
1446;SDS011;717;51.522;7.266;2023-05-10T08:16:55;30.73;;;23.08;;
1446;SDS011;717;51.522;7.266;2023-05-10T08:19:23;30.92;;;22.92;;
1446;SDS011;717;51.522;7.266;2023-05-10T08:21:52;29.35;;;21.75;;
1446;SDS011;717;51.522;7.266;2023-05-10T08:24:21;30.17;;;21.38;;
1446;SDS011;717;51.522;7.266;2023-05-10T08:26:50;28.90;;;21.10;;
1446;SDS011;717;51.522;7.266;2023-05-10T08:29:21;28.42;;;20.75;;
1446;SDS011;717;51.522;7.266;2023-05-10T08:31:49;27.60;;;20.48;;
1446;SDS011;717;51.522;7.266;2023-05-10T08:34:18;28.55;;;19.90;;
1446;SDS011;717;51.522;7.266;2023-05-10T08:36:47;28.10;;;19.90;;
1446;SDS011;717;51.522;7.266;2023-05-10T08:39:16;29.77;;;20.60;;
1446;SDS011;717;51.522;7.266;2023-05-10T08:41:45;32.33;;;20.52;;
1446;SDS011;717;51.522;7.266;2023-05-10T08:44:15;29.58;;;20.23;;
1446;SDS011;717;51.522;7.266;2023-05-10T08:46:47;30.92;;;20.70;;
1446;SDS011;717;51.522;7.266;2023-05-10T08:49:20;32.80;;;20.48;;
1446;SDS011;717;51.522;7.266;2023-05-10T08:51:51;28.25;;;19.85;;
1446;SDS011;717;51.522;7.266;2023-05-10T08:54:23;29.48;;;20.45;;
1446;SDS011;717;51.522;7.266;2023-05-10T08:56:52;32.95;;;22.15;;
1446;SDS011;717;51.522;7.266;2023-05-10T08:59:21;33.40;;;21.98;;
1446;SDS011;717;51.522;7.266;2023-05-10T09:01:53;28.98;;;19.85;;
1446;SDS011;717;51.522;7.266;2023-05-10T09:04:23;26.52;;;19.20;;
1446;SDS011;717;51.522;7.266;2023-05-10T09:06:52;30.77;;;20.90;;
1446;SDS011;717;51.522;7.266;2023-05-10T09:09:21;25.70;;;19.33;;
1446;SDS011;717;51.522;7.266;2023-05-10T09:11:50;25.75;;;18.48;;
1446;SDS011;717;51.522;7.266;2023-05-10T09:14:20;25.33;;;17.58;;
1446;SDS011;717;51.522;7.266;2023-05-10T09:16:53;22.63;;;17.85;;
1446;SDS011;717;51.522;7.266;2023-05-10T09:19:22;26.25;;;17.10;;
1446;SDS011;717;51.522;7.266;2023-05-10T09:21:51;23.92;;;17.45;;
1446;SDS011;717;51.522;7.266;2023-05-10T09:24:20;22.67;;;16.02;;
1446;SDS011;717;51.522;7.266;2023-05-10T09:26:53;21.73;;;16.60;;
1446;SDS011;717;51.522;7.266;2023-05-10T09:29:25;21.92;;;16.73;;
1446;SDS011;717;51.522;7.266;2023-05-10T09:31:56;22.10;;;15.77;;
1446;SDS011;717;51.522;7.266;2023-05-10T09:34:28;18.55;;;15.07;;
1446;SDS011;717;51.522;7.266;2023-05-10T09:36:58;19.08;;;14.10;;
1446;SDS011;717;51.522;7.266;2023-05-10T09:39:32;20.85;;;15.45;;
1446;SDS011;717;51.522;7.266;2023-05-10T09:42:02;20.08;;;15.35;;
1446;SDS011;717;51.522;7.266;2023-05-10T09:44:32;23.88;;;16.88;;
1446;SDS011;717;51.522;7.266;2023-05-10T09:47:04;20.75;;;17.30;;
1446;SDS011;717;51.522;7.266;2023-05-10T09:49:32;22.95;;;16.70;;
1446;SDS011;717;51.522;7.266;2023-05-10T09:52:03;21.33;;;17.33;;
1446;SDS011;717;51.522;7.266;2023-05-10T09:54:33;24.98;;;17.65;;
1446;SDS011;717;51.522;7.266;2023-05-10T09:57:02;21.38;;;15.23;;
1446;SDS011;717;51.522;7.266;2023-05-10T09:59:32;20.23;;;14.48;;
1446;SDS011;717;51.522;7.266;2023-05-10T10:02:04;15.75;;;12.32;;
1446;SDS011;717;51.522;7.266;2023-05-10T10:04:37;16.23;;;11.18;;
1446;SDS011;717;51.522;7.266;2023-05-10T10:07:07;13.50;;;10.60;;
1446;SDS011;717;51.522;7.266;2023-05-10T10:09:36;14.75;;;10.00;;
1446;SDS011;717;51.522;7.266;2023-05-10T10:12:05;14.05;;;9.55;;
1446;SDS011;717;51.522;7.266;2023-05-10T10:14:33;13.57;;;9.38;;
1446;SDS011;717;51.522;7.266;2023-05-10T10:17:05;13.45;;;10.25;;
1446;SDS011;717;51.522;7.266;2023-05-10T10:19:35;11.98;;;9.02;;
1446;SDS011;717;51.522;7.266;2023-05-10T10:22:04;11.73;;;9.57;;
1446;SDS011;717;51.522;7.266;2023-05-10T10:24:32;15.65;;;11.48;;
1446;SDS011;717;51.522;7.266;2023-05-10T10:27:03;17.98;;;12.18;;
1446;SDS011;717;51.522;7.266;2023-05-10T10:29:41;16.75;;;12.05;;
1446;SDS011;717;51.522;7.266;2023-05-10T10:32:23;18.95;;;14.05;;
1446;SDS011;717;51.522;7.266;2023-05-10T10:34:58;20.38;;;14.55;;
1446;SDS011;717;51.522;7.266;2023-05-10T10:37:41;21.52;;;16.13;;
1446;SDS011;717;51.522;7.266;2023-05-10T10:40:24;21.40;;;14.63;;
1446;SDS011;717;51.522;7.266;2023-05-10T10:42:54;19.58;;;14.15;;
1446;SDS011;717;51.522;7.266;2023-05-10T10:45:24;19.92;;;14.13;;
1446;SDS011;717;51.522;7.266;2023-05-10T10:50:56;19.65;;;13.05;;
1446;SDS011;717;51.522;7.266;2023-05-10T10:53:26;16.75;;;13.00;;
1446;SDS011;717;51.522;7.266;2023-05-10T10:56:02;17.08;;;14.10;;
1446;SDS011;717;51.522;7.266;2023-05-10T10:58:34;19.45;;;15.13;;
1446;SDS011;717;51.522;7.266;2023-05-10T11:01:11;16.92;;;14.43;;
1446;SDS011;717;51.522;7.266;2023-05-10T11:03:54;16.67;;;13.20;;
1446;SDS011;717;51.522;7.266;2023-05-10T11:06:38;18.05;;;13.45;;
1446;SDS011;717;51.522;7.266;2023-05-10T11:09:07;19.73;;;15.70;;
1446;SDS011;717;51.522;7.266;2023-05-10T11:11:48;17.70;;;15.80;;
1446;SDS011;717;51.522;7.266;2023-05-10T11:14:20;16.77;;;14.63;;
1446;SDS011;717;51.522;7.266;2023-05-10T11:16:50;16.67;;;14.88;;
1446;SDS011;717;51.522;7.266;2023-05-10T11:19:21;15.30;;;12.88;;
1446;SDS011;717;51.522;7.266;2023-05-10T11:24:49;15.27;;;12.32;;
1446;SDS011;717;51.522;7.266;2023-05-10T11:27:24;16.15;;;12.02;;
1446;SDS011;717;51.522;7.266;2023-05-10T11:29:53;16.10;;;13.10;;
1446;SDS011;717;51.522;7.266;2023-05-10T11:32:21;16.75;;;13.68;;
1446;SDS011;717;51.522;7.266;2023-05-10T11:34:53;20.05;;;15.63;;
1446;SDS011;717;51.522;7.266;2023-05-10T11:37:21;19.42;;;16.90;;
1446;SDS011;717;51.522;7.266;2023-05-10T11:39:50;16.83;;;14.68;;
1446;SDS011;717;51.522;7.266;2023-05-10T11:42:18;19.35;;;16.95;;
1446;SDS011;717;51.522;7.266;2023-05-10T11:44:47;17.80;;;15.23;;
1446;SDS011;717;51.522;7.266;2023-05-10T11:47:16;17.27;;;14.60;;
1446;SDS011;717;51.522;7.266;2023-05-10T11:49:45;18.25;;;14.68;;
1446;SDS011;717;51.522;7.266;2023-05-10T11:52:17;16.60;;;14.10;;
1446;SDS011;717;51.522;7.266;2023-05-10T11:54:50;14.35;;;12.85;;
1446;SDS011;717;51.522;7.266;2023-05-10T11:57:19;14.27;;;12.77;;
1446;SDS011;717;51.522;7.266;2023-05-10T11:59:52;15.63;;;11.82;;
1446;SDS011;717;51.522;7.266;2023-05-10T12:02:21;12.98;;;11.25;;
1446;SDS011;717;51.522;7.266;2023-05-10T12:04:50;13.30;;;10.10;;
1446;SDS011;717;51.522;7.266;2023-05-10T12:07:21;14.82;;;11.27;;
1446;SDS011;717;51.522;7.266;2023-05-10T12:10:03;11.30;;;9.25;;
1446;SDS011;717;51.522;7.266;2023-05-10T12:12:37;12.98;;;10.30;;
1446;SDS011;717;51.522;7.266;2023-05-10T12:15:10;11.48;;;9.15;;
1446;SDS011;717;51.522;7.266;2023-05-10T12:17:39;11.60;;;9.80;;
1446;SDS011;717;51.522;7.266;2023-05-10T12:20:14;13.88;;;11.32;;
1446;SDS011;717;51.522;7.266;2023-05-10T12:22:50;14.15;;;11.25;;
1446;SDS011;717;51.522;7.266;2023-05-10T12:25:20;11.57;;;10.43;;
1446;SDS011;717;51.522;7.266;2023-05-10T12:27:53;12.55;;;10.63;;
1446;SDS011;717;51.522;7.266;2023-05-10T12:30:23;11.57;;;10.20;;
1446;SDS011;717;51.522;7.266;2023-05-10T12:32:52;12.38;;;10.93;;
1446;SDS011;717;51.522;7.266;2023-05-10T12:35:22;12.00;;;10.35;;
1446;SDS011;717;51.522;7.266;2023-05-10T12:37:53;14.27;;;10.50;;
1446;SDS011;717;51.522;7.266;2023-05-10T12:40:22;12.32;;;10.32;;
1446;SDS011;717;51.522;7.266;2023-05-10T12:42:50;12.13;;;10.82;;
1446;SDS011;717;51.522;7.266;2023-05-10T12:45:19;10.32;;;9.23;;
1446;SDS011;717;51.522;7.266;2023-05-10T12:47:48;11.75;;;10.52;;
1446;SDS011;717;51.522;7.266;2023-05-10T12:50:17;12.57;;;10.93;;
1446;SDS011;717;51.522;7.266;2023-05-10T12:52:45;14.00;;;10.60;;
1446;SDS011;717;51.522;7.266;2023-05-10T12:55:17;12.13;;;10.38;;
1446;SDS011;717;51.522;7.266;2023-05-10T12:57:45;12.25;;;10.95;;
1446;SDS011;717;51.522;7.266;2023-05-10T13:00:14;12.73;;;11.43;;
1446;SDS011;717;51.522;7.266;2023-05-10T13:02:43;12.68;;;11.13;;
1446;SDS011;717;51.522;7.266;2023-05-10T13:05:12;13.68;;;11.30;;
1446;SDS011;717;51.522;7.266;2023-05-10T13:07:40;12.20;;;10.90;;
1446;SDS011;717;51.522;7.266;2023-05-10T13:10:09;11.70;;;9.95;;
1446;SDS011;717;51.522;7.266;2023-05-10T13:12:41;12.68;;;10.23;;
1446;SDS011;717;51.522;7.266;2023-05-10T13:15:09;14.60;;;11.20;;
1446;SDS011;717;51.522;7.266;2023-05-10T13:17:38;12.98;;;11.68;;
1446;SDS011;717;51.522;7.266;2023-05-10T13:20:08;11.82;;;10.68;;
1446;SDS011;717;51.522;7.266;2023-05-10T13:22:37;11.57;;;10.38;;
1446;SDS011;717;51.522;7.266;2023-05-10T13:25:06;10.80;;;9.80;;
1446;SDS011;717;51.522;7.266;2023-05-10T13:27:35;13.98;;;10.10;;
1446;SDS011;717;51.522;7.266;2023-05-10T13:30:07;9.25;;;8.32;;
1446;SDS011;717;51.522;7.266;2023-05-10T13:32:36;9.35;;;8.35;;
1446;SDS011;717;51.522;7.266;2023-05-10T13:35:06;8.63;;;7.57;;
1446;SDS011;717;51.522;7.266;2023-05-10T13:37:35;9.20;;;7.55;;
1446;SDS011;717;51.522;7.266;2023-05-10T13:40:04;8.32;;;7.45;;
1446;SDS011;717;51.522;7.266;2023-05-10T13:42:34;8.00;;;6.45;;
1446;SDS011;717;51.522;7.266;2023-05-10T13:45:03;7.28;;;6.45;;
1446;SDS011;717;51.522;7.266;2023-05-10T13:47:35;6.70;;;5.40;;
1446;SDS011;717;51.522;7.266;2023-05-10T13:50:04;5.65;;;4.55;;
1446;SDS011;717;51.522;7.266;2023-05-10T13:52:34;6.82;;;4.30;;
1446;SDS011;717;51.522;7.266;2023-05-10T13:55:02;4.30;;;3.90;;
1446;SDS011;717;51.522;7.266;2023-05-10T13:57:31;3.50;;;3.20;;
1446;SDS011;717;51.522;7.266;2023-05-10T14:00:01;3.72;;;3.20;;
1446;SDS011;717;51.522;7.266;2023-05-10T14:02:29;4.95;;;3.60;;
1446;SDS011;717;51.522;7.266;2023-05-10T14:05:00;3.72;;;3.30;;
1446;SDS011;717;51.522;7.266;2023-05-10T14:07:29;4.28;;;3.88;;
1446;SDS011;717;51.522;7.266;2023-05-10T14:09:58;5.75;;;4.07;;
1446;SDS011;717;51.522;7.266;2023-05-10T14:12:27;4.28;;;3.40;;
1446;SDS011;717;51.522;7.266;2023-05-10T14:14:56;4.28;;;3.88;;
1446;SDS011;717;51.522;7.266;2023-05-10T14:17:25;4.07;;;3.03;;
1446;SDS011;717;51.522;7.266;2023-05-10T14:19:53;4.57;;;3.05;;
1446;SDS011;717;51.522;7.266;2023-05-10T14:22:25;3.88;;;3.30;;
1446;SDS011;717;51.522;7.266;2023-05-10T14:24:53;4.40;;;3.20;;
1446;SDS011;717;51.522;7.266;2023-05-10T14:27:22;3.80;;;3.08;;
1446;SDS011;717;51.522;7.266;2023-05-10T14:29:50;3.13;;;2.80;;
1446;SDS011;717;51.522;7.266;2023-05-10T14:32:19;3.58;;;2.83;;
1446;SDS011;717;51.522;7.266;2023-05-10T14:34:48;4.35;;;3.22;;
1446;SDS011;717;51.522;7.266;2023-05-10T14:37:16;3.33;;;3.03;;
1446;SDS011;717;51.522;7.266;2023-05-10T14:39:48;6.90;;;2.90;;
1446;SDS011;717;51.522;7.266;2023-05-10T14:42:17;3.60;;;3.20;;
1446;SDS011;717;51.522;7.266;2023-05-10T14:44:46;3.65;;;3.35;;
1446;SDS011;717;51.522;7.266;2023-05-10T14:47:14;3.40;;;3.10;;
1446;SDS011;717;51.522;7.266;2023-05-10T14:49:43;3.75;;;3.42;;
1446;SDS011;717;51.522;7.266;2023-05-10T14:52:12;4.80;;;3.80;;
1446;SDS011;717;51.522;7.266;2023-05-10T14:54:41;4.07;;;3.55;;
1446;SDS011;717;51.522;7.266;2023-05-10T14:57:12;6.15;;;4.00;;
1446;SDS011;717;51.522;7.266;2023-05-10T14:59:41;6.50;;;3.72;;
1446;SDS011;717;51.522;7.266;2023-05-10T15:02:09;4.43;;;3.28;;
1446;SDS011;717;51.522;7.266;2023-05-10T15:04:38;3.95;;;3.50;;
1446;SDS011;717;51.522;7.266;2023-05-10T15:07:07;5.50;;;3.70;;
1446;SDS011;717;51.522;7.266;2023-05-10T15:09:39;4.57;;;3.67;;
1446;SDS011;717;51.522;7.266;2023-05-10T15:12:08;4.70;;;3.70;;
1446;SDS011;717;51.522;7.266;2023-05-10T15:14:39;5.13;;;3.53;;
1446;SDS011;717;51.522;7.266;2023-05-10T15:17:07;4.70;;;3.58;;
1446;SDS011;717;51.522;7.266;2023-05-10T15:19:36;3.38;;;3.08;;
1446;SDS011;717;51.522;7.266;2023-05-10T15:22:04;4.60;;;3.78;;
1446;SDS011;717;51.522;7.266;2023-05-10T15:24:33;3.88;;;3.60;;
1446;SDS011;717;51.522;7.266;2023-05-10T15:27:02;6.03;;;4.00;;
1446;SDS011;717;51.522;7.266;2023-05-10T15:29:31;5.80;;;4.28;;
1446;SDS011;717;51.522;7.266;2023-05-10T15:32:03;6.07;;;4.18;;
1446;SDS011;717;51.522;7.266;2023-05-10T15:34:32;5.45;;;4.05;;
1446;SDS011;717;51.522;7.266;2023-05-10T15:37:01;4.93;;;4.43;;